sensor_id;sensor_type;location;lat;lon;timestamp;P1;durP1;ratioP1;P2;durP2;ratioP2
35324;SDS011;35135;47.510;19.036;2023-03-29T00:02:22;1.25;;;0.80;;
35324;SDS011;35135;47.510;19.036;2023-03-29T00:04:54;1.58;;;1.05;;
35324;SDS011;35135;47.510;19.036;2023-03-29T00:07:21;1.05;;;0.75;;
35324;SDS011;35135;47.510;19.036;2023-03-29T00:09:47;1.55;;;0.82;;
35324;SDS011;35135;47.510;19.036;2023-03-29T00:12:13;1.52;;;0.80;;
35324;SDS011;35135;47.510;19.036;2023-03-29T00:14:39;1.35;;;0.80;;
35324;SDS011;35135;47.510;19.036;2023-03-29T00:17:05;1.40;;;0.90;;
35324;SDS011;35135;47.510;19.036;2023-03-29T00:19:31;1.15;;;0.73;;
35324;SDS011;35135;47.510;19.036;2023-03-29T00:22:00;1.60;;;0.80;;
35324;SDS011;35135;47.510;19.036;2023-03-29T00:24:26;0.98;;;0.77;;
35324;SDS011;35135;47.510;19.036;2023-03-29T00:26:52;1.60;;;0.82;;
35324;SDS011;35135;47.510;19.036;2023-03-29T00:29:17;1.67;;;0.95;;
35324;SDS011;35135;47.510;19.036;2023-03-29T00:31:43;1.45;;;0.80;;
35324;SDS011;35135;47.510;19.036;2023-03-29T00:34:15;1.73;;;0.83;;
35324;SDS011;35135;47.510;19.036;2023-03-29T00:36:41;1.05;;;0.75;;
35324;SDS011;35135;47.510;19.036;2023-03-29T00:39:07;1.02;;;0.82;;
35324;SDS011;35135;47.510;19.036;2023-03-29T00:41:33;1.83;;;1.10;;
35324;SDS011;35135;47.510;19.036;2023-03-29T00:44:00;1.23;;;0.65;;
35324;SDS011;35135;47.510;19.036;2023-03-29T00:46:28;1.02;;;0.68;;
35324;SDS011;35135;47.510;19.036;2023-03-29T00:49:05;1.05;;;0.73;;
35324;SDS011;35135;47.510;19.036;2023-03-29T00:51:36;3.13;;;0.93;;
35324;SDS011;35135;47.510;19.036;2023-03-29T00:54:05;1.60;;;0.73;;
35324;SDS011;35135;47.510;19.036;2023-03-29T00:56:38;1.70;;;0.90;;
35324;SDS011;35135;47.510;19.036;2023-03-29T00:59:12;1.08;;;0.80;;
35324;SDS011;35135;47.510;19.036;2023-03-29T01:01:45;1.73;;;0.73;;
35324;SDS011;35135;47.510;19.036;2023-03-29T01:04:19;1.30;;;0.70;;
35324;SDS011;35135;47.510;19.036;2023-03-29T01:06:50;1.40;;;0.90;;
35324;SDS011;35135;47.510;19.036;2023-03-29T01:09:23;1.63;;;0.90;;
35324;SDS011;35135;47.510;19.036;2023-03-29T01:11:54;1.60;;;0.88;;
35324;SDS011;35135;47.510;19.036;2023-03-29T01:14:32;2.73;;;0.90;;
35324;SDS011;35135;47.510;19.036;2023-03-29T01:17:03;2.92;;;0.90;;
35324;SDS011;35135;47.510;19.036;2023-03-29T01:19:32;1.20;;;0.73;;
35324;SDS011;35135;47.510;19.036;2023-03-29T01:25:08;1.30;;;0.98;;
35324;SDS011;35135;47.510;19.036;2023-03-29T01:27:50;2.13;;;0.90;;
35324;SDS011;35135;47.510;19.036;2023-03-29T01:30:21;1.42;;;0.65;;
35324;SDS011;35135;47.510;19.036;2023-03-29T01:36:15;1.60;;;0.98;;
35324;SDS011;35135;47.510;19.036;2023-03-29T01:38:27;1.70;;;1.08;;
35324;SDS011;35135;47.510;19.036;2023-03-29T01:40:58;1.30;;;0.80;;
35324;SDS011;35135;47.510;19.036;2023-03-29T01:46:25;1.20;;;0.80;;
35324;SDS011;35135;47.510;19.036;2023-03-29T01:49:00;1.35;;;1.00;;
35324;SDS011;35135;47.510;19.036;2023-03-29T01:51:34;2.03;;;0.93;;
35324;SDS011;35135;47.510;19.036;2023-03-29T01:56:33;1.70;;;0.85;;
35324;SDS011;35135;47.510;19.036;2023-03-29T01:59:03;1.40;;;0.88;;
35324;SDS011;35135;47.510;19.036;2023-03-29T02:01:38;2.75;;;1.00;;
35324;SDS011;35135;47.510;19.036;2023-03-29T02:04:11;1.40;;;0.80;;
35324;SDS011;35135;47.510;19.036;2023-03-29T02:06:38;2.13;;;1.05;;
35324;SDS011;35135;47.510;19.036;2023-03-29T02:09:05;1.17;;;0.80;;
35324;SDS011;35135;47.510;19.036;2023-03-29T02:11:31;1.00;;;0.70;;
35324;SDS011;35135;47.510;19.036;2023-03-29T02:13:59;1.80;;;0.77;;
35324;SDS011;35135;47.510;19.036;2023-03-29T02:16:24;1.40;;;0.90;;
35324;SDS011;35135;47.510;19.036;2023-03-29T02:18:51;1.70;;;0.90;;
35324;SDS011;35135;47.510;19.036;2023-03-29T02:21:30;2.55;;;1.08;;
35324;SDS011;35135;47.510;19.036;2023-03-29T02:24:04;1.42;;;0.93;;
35324;SDS011;35135;47.510;19.036;2023-03-29T02:26:33;1.85;;;1.15;;
35324;SDS011;35135;47.510;19.036;2023-03-29T02:29:00;1.20;;;0.80;;
35324;SDS011;35135;47.510;19.036;2023-03-29T02:31:31;1.48;;;1.20;;
35324;SDS011;35135;47.510;19.036;2023-03-29T02:37:05;1.55;;;1.00;;
35324;SDS011;35135;47.510;19.036;2023-03-29T02:39:32;1.35;;;0.82;;
35324;SDS011;35135;47.510;19.036;2023-03-29T02:41:59;1.25;;;0.93;;
35324;SDS011;35135;47.510;19.036;2023-03-29T02:44:27;2.22;;;1.17;;
35324;SDS011;35135;47.510;19.036;2023-03-29T02:46:55;1.70;;;0.98;;
35324;SDS011;35135;47.510;19.036;2023-03-29T02:49:26;1.17;;;0.80;;
35324;SDS011;35135;47.510;19.036;2023-03-29T02:51:53;1.60;;;0.88;;
35324;SDS011;35135;47.510;19.036;2023-03-29T02:54:22;1.17;;;0.88;;
35324;SDS011;35135;47.510;19.036;2023-03-29T02:56:57;1.10;;;0.85;;
35324;SDS011;35135;47.510;19.036;2023-03-29T02:59:24;4.00;;;1.10;;
35324;SDS011;35135;47.510;19.036;2023-03-29T03:01:50;1.00;;;0.70;;
35324;SDS011;35135;47.510;19.036;2023-03-29T03:04:17;1.20;;;0.90;;
35324;SDS011;35135;47.510;19.036;2023-03-29T03:06:45;1.42;;;0.90;;
35324;SDS011;35135;47.510;19.036;2023-03-29T03:09:11;1.25;;;0.88;;
35324;SDS011;35135;47.510;19.036;2023-03-29T03:11:37;1.50;;;1.00;;
35324;SDS011;35135;47.510;19.036;2023-03-29T03:14:03;1.88;;;0.93;;
35324;SDS011;35135;47.510;19.036;2023-03-29T03:16:30;1.50;;;0.93;;
35324;SDS011;35135;47.510;19.036;2023-03-29T03:18:56;1.33;;;0.88;;
35324;SDS011;35135;47.510;19.036;2023-03-29T03:21:22;1.80;;;0.88;;
35324;SDS011;35135;47.510;19.036;2023-03-29T03:23:48;2.03;;;1.10;;
35324;SDS011;35135;47.510;19.036;2023-03-29T03:26:14;1.88;;;0.93;;
35324;SDS011;35135;47.510;19.036;2023-03-29T03:28:42;1.45;;;0.82;;
35324;SDS011;35135;47.510;19.036;2023-03-29T03:31:08;1.52;;;0.98;;
35324;SDS011;35135;47.510;19.036;2023-03-29T03:33:33;1.85;;;0.95;;
35324;SDS011;35135;47.510;19.036;2023-03-29T03:35:59;1.85;;;1.05;;
35324;SDS011;35135;47.510;19.036;2023-03-29T03:38:29;2.13;;;0.90;;
35324;SDS011;35135;47.510;19.036;2023-03-29T03:40:59;1.15;;;1.02;;
35324;SDS011;35135;47.510;19.036;2023-03-29T03:43:25;1.70;;;1.25;;
35324;SDS011;35135;47.510;19.036;2023-03-29T03:45:52;2.50;;;0.90;;
35324;SDS011;35135;47.510;19.036;2023-03-29T03:48:18;1.52;;;1.00;;
35324;SDS011;35135;47.510;19.036;2023-03-29T03:50:51;1.65;;;0.90;;
35324;SDS011;35135;47.510;19.036;2023-03-29T03:53:18;1.13;;;0.98;;
35324;SDS011;35135;47.510;19.036;2023-03-29T03:55:48;1.75;;;1.10;;
35324;SDS011;35135;47.510;19.036;2023-03-29T03:58:14;1.00;;;0.75;;
35324;SDS011;35135;47.510;19.036;2023-03-29T04:00:41;1.40;;;1.00;;
35324;SDS011;35135;47.510;19.036;2023-03-29T04:03:07;1.98;;;1.13;;
35324;SDS011;35135;47.510;19.036;2023-03-29T04:05:32;1.65;;;0.88;;
35324;SDS011;35135;47.510;19.036;2023-03-29T04:08:03;1.23;;;0.82;;
35324;SDS011;35135;47.510;19.036;2023-03-29T04:10:30;1.65;;;1.13;;
35324;SDS011;35135;47.510;19.036;2023-03-29T04:13:00;1.65;;;0.90;;
35324;SDS011;35135;47.510;19.036;2023-03-29T04:15:30;1.55;;;0.90;;
35324;SDS011;35135;47.510;19.036;2023-03-29T04:17:57;1.30;;;0.90;;
35324;SDS011;35135;47.510;19.036;2023-03-29T04:20:24;2.53;;;1.10;;
35324;SDS011;35135;47.510;19.036;2023-03-29T04:22:51;2.00;;;1.20;;
35324;SDS011;35135;47.510;19.036;2023-03-29T04:25:17;1.50;;;1.00;;
35324;SDS011;35135;47.510;19.036;2023-03-29T04:27:44;1.95;;;1.10;;
35324;SDS011;35135;47.510;19.036;2023-03-29T04:30:10;3.40;;;1.20;;
35324;SDS011;35135;47.510;19.036;2023-03-29T04:32:36;1.13;;;0.85;;
35324;SDS011;35135;47.510;19.036;2023-03-29T04:35:02;2.30;;;1.30;;
35324;SDS011;35135;47.510;19.036;2023-03-29T04:37:29;1.90;;;1.10;;
35324;SDS011;35135;47.510;19.036;2023-03-29T04:39:55;2.17;;;1.35;;
35324;SDS011;35135;47.510;19.036;2023-03-29T04:42:24;2.47;;;1.35;;
35324;SDS011;35135;47.510;19.036;2023-03-29T04:44:50;1.60;;;1.08;;
35324;SDS011;35135;47.510;19.036;2023-03-29T04:47:17;2.05;;;1.00;;
35324;SDS011;35135;47.510;19.036;2023-03-29T04:49:43;3.50;;;1.20;;
35324;SDS011;35135;47.510;19.036;2023-03-29T04:52:09;2.95;;;1.02;;
35324;SDS011;35135;47.510;19.036;2023-03-29T04:54:35;1.92;;;1.08;;
35324;SDS011;35135;47.510;19.036;2023-03-29T04:57:01;1.45;;;0.80;;
35324;SDS011;35135;47.510;19.036;2023-03-29T04:59:31;2.08;;;1.20;;
35324;SDS011;35135;47.510;19.036;2023-03-29T05:01:57;2.05;;;0.90;;
35324;SDS011;35135;47.510;19.036;2023-03-29T05:04:23;2.13;;;1.23;;
35324;SDS011;35135;47.510;19.036;2023-03-29T05:06:49;1.30;;;0.95;;
35324;SDS011;35135;47.510;19.036;2023-03-29T05:09:15;1.83;;;1.00;;
35324;SDS011;35135;47.510;19.036;2023-03-29T05:11:41;2.05;;;1.30;;
35324;SDS011;35135;47.510;19.036;2023-03-29T05:14:07;1.77;;;1.10;;
35324;SDS011;35135;47.510;19.036;2023-03-29T05:16:33;1.65;;;1.13;;
35324;SDS011;35135;47.510;19.036;2023-03-29T05:18:59;3.30;;;1.30;;
35324;SDS011;35135;47.510;19.036;2023-03-29T05:21:25;3.38;;;1.60;;
35324;SDS011;35135;47.510;19.036;2023-03-29T05:23:52;8.63;;;1.35;;
35324;SDS011;35135;47.510;19.036;2023-03-29T05:26:19;3.17;;;1.27;;
35324;SDS011;35135;47.510;19.036;2023-03-29T05:28:46;5.97;;;1.30;;
35324;SDS011;35135;47.510;19.036;2023-03-29T05:31:13;3.42;;;1.10;;
35324;SDS011;35135;47.510;19.036;2023-03-29T05:33:38;3.17;;;1.20;;
35324;SDS011;35135;47.510;19.036;2023-03-29T05:36:08;6.88;;;1.38;;
35324;SDS011;35135;47.510;19.036;2023-03-29T05:38:37;2.60;;;1.33;;
35324;SDS011;35135;47.510;19.036;2023-03-29T05:41:04;3.33;;;1.27;;
35324;SDS011;35135;47.510;19.036;2023-03-29T05:43:31;2.90;;;1.38;;
35324;SDS011;35135;47.510;19.036;2023-03-29T05:45:58;2.92;;;1.15;;
35324;SDS011;35135;47.510;19.036;2023-03-29T05:48:24;8.02;;;1.70;;
35324;SDS011;35135;47.510;19.036;2023-03-29T05:50:54;4.47;;;1.30;;
35324;SDS011;35135;47.510;19.036;2023-03-29T05:53:22;5.32;;;1.70;;
35324;SDS011;35135;47.510;19.036;2023-03-29T05:55:50;5.50;;;1.63;;
35324;SDS011;35135;47.510;19.036;2023-03-29T05:58:18;6.45;;;1.75;;
35324;SDS011;35135;47.510;19.036;2023-03-29T06:00:46;5.57;;;1.42;;
35324;SDS011;35135;47.510;19.036;2023-03-29T06:03:17;4.60;;;1.58;;
35324;SDS011;35135;47.510;19.036;2023-03-29T06:05:45;3.58;;;1.40;;
35324;SDS011;35135;47.510;19.036;2023-03-29T06:08:14;4.00;;;1.20;;
35324;SDS011;35135;47.510;19.036;2023-03-29T06:10:40;5.28;;;1.40;;
35324;SDS011;35135;47.510;19.036;2023-03-29T06:13:07;2.22;;;1.10;;
35324;SDS011;35135;47.510;19.036;2023-03-29T06:15:33;3.22;;;1.63;;
35324;SDS011;35135;47.510;19.036;2023-03-29T06:17:59;6.72;;;2.03;;
35324;SDS011;35135;47.510;19.036;2023-03-29T06:20:26;3.30;;;1.40;;
35324;SDS011;35135;47.510;19.036;2023-03-29T06:22:52;7.00;;;1.50;;
35324;SDS011;35135;47.510;19.036;2023-03-29T06:25:17;4.90;;;1.40;;
35324;SDS011;35135;47.510;19.036;2023-03-29T06:27:44;2.67;;;1.30;;
35324;SDS011;35135;47.510;19.036;2023-03-29T06:30:11;4.60;;;1.73;;
35324;SDS011;35135;47.510;19.036;2023-03-29T06:32:38;7.60;;;1.63;;
35324;SDS011;35135;47.510;19.036;2023-03-29T06:35:04;5.47;;;2.22;;
35324;SDS011;35135;47.510;19.036;2023-03-29T06:37:30;4.35;;;1.40;;
35324;SDS011;35135;47.510;19.036;2023-03-29T06:39:56;4.15;;;1.30;;
35324;SDS011;35135;47.510;19.036;2023-03-29T06:42:23;3.72;;;1.80;;
35324;SDS011;35135;47.510;19.036;2023-03-29T06:44:49;9.50;;;1.83;;
35324;SDS011;35135;47.510;19.036;2023-03-29T06:47:15;4.57;;;1.45;;
35324;SDS011;35135;47.510;19.036;2023-03-29T06:49:41;5.30;;;2.70;;
35324;SDS011;35135;47.510;19.036;2023-03-29T06:52:07;5.18;;;2.55;;
35324;SDS011;35135;47.510;19.036;2023-03-29T06:54:34;5.20;;;2.70;;
35324;SDS011;35135;47.510;19.036;2023-03-29T06:57:00;3.65;;;2.40;;
35324;SDS011;35135;47.510;19.036;2023-03-29T06:59:26;2.60;;;1.90;;
35324;SDS011;35135;47.510;19.036;2023-03-29T07:01:53;3.33;;;1.83;;
35324;SDS011;35135;47.510;19.036;2023-03-29T07:04:18;3.20;;;2.15;;
35324;SDS011;35135;47.510;19.036;2023-03-29T07:06:46;3.53;;;2.10;;
35324;SDS011;35135;47.510;19.036;2023-03-29T07:09:25;5.07;;;2.60;;
35324;SDS011;35135;47.510;19.036;2023-03-29T07:11:54;4.35;;;2.10;;
35324;SDS011;35135;47.510;19.036;2023-03-29T07:14:23;5.90;;;2.25;;
35324;SDS011;35135;47.510;19.036;2023-03-29T07:16:52;3.95;;;1.95;;
35324;SDS011;35135;47.510;19.036;2023-03-29T07:19:19;3.35;;;1.75;;
35324;SDS011;35135;47.510;19.036;2023-03-29T07:21:48;3.72;;;2.10;;
35324;SDS011;35135;47.510;19.036;2023-03-29T07:24:14;4.60;;;2.20;;
35324;SDS011;35135;47.510;19.036;2023-03-29T07:26:40;6.35;;;2.45;;
35324;SDS011;35135;47.510;19.036;2023-03-29T07:29:06;3.53;;;1.88;;
35324;SDS011;35135;47.510;19.036;2023-03-29T07:31:34;3.25;;;1.90;;
35324;SDS011;35135;47.510;19.036;2023-03-29T07:34:02;3.22;;;1.80;;
35324;SDS011;35135;47.510;19.036;2023-03-29T07:36:29;4.47;;;1.80;;
35324;SDS011;35135;47.510;19.036;2023-03-29T07:38:58;2.90;;;1.50;;
35324;SDS011;35135;47.510;19.036;2023-03-29T07:41:25;3.50;;;2.00;;
35324;SDS011;35135;47.510;19.036;2023-03-29T07:43:51;2.50;;;1.88;;
35324;SDS011;35135;47.510;19.036;2023-03-29T07:46:18;2.67;;;1.60;;
35324;SDS011;35135;47.510;19.036;2023-03-29T07:48:44;2.63;;;1.58;;
35324;SDS011;35135;47.510;19.036;2023-03-29T07:51:09;4.13;;;1.98;;
35324;SDS011;35135;47.510;19.036;2023-03-29T07:53:35;2.72;;;1.80;;
35324;SDS011;35135;47.510;19.036;2023-03-29T07:56:02;3.10;;;2.00;;
35324;SDS011;35135;47.510;19.036;2023-03-29T07:58:28;2.60;;;1.60;;
35324;SDS011;35135;47.510;19.036;2023-03-29T08:00:54;2.75;;;1.45;;
35324;SDS011;35135;47.510;19.036;2023-03-29T08:03:20;2.67;;;1.63;;
35324;SDS011;35135;47.510;19.036;2023-03-29T08:05:46;2.40;;;1.50;;
35324;SDS011;35135;47.510;19.036;2023-03-29T08:08:12;2.33;;;1.58;;
35324;SDS011;35135;47.510;19.036;2023-03-29T08:10:38;2.92;;;1.60;;
35324;SDS011;35135;47.510;19.036;2023-03-29T08:13:04;2.35;;;1.60;;
35324;SDS011;35135;47.510;19.036;2023-03-29T08:15:32;3.05;;;1.73;;
35324;SDS011;35135;47.510;19.036;2023-03-29T08:17:59;2.55;;;1.73;;
35324;SDS011;35135;47.510;19.036;2023-03-29T08:20:24;1.95;;;1.20;;
35324;SDS011;35135;47.510;19.036;2023-03-29T08:22:50;3.17;;;1.35;;
35324;SDS011;35135;47.510;19.036;2023-03-29T08:25:16;3.88;;;1.77;;
35324;SDS011;35135;47.510;19.036;2023-03-29T08:27:41;2.78;;;1.58;;
35324;SDS011;35135;47.510;19.036;2023-03-29T08:30:07;3.35;;;1.95;;
35324;SDS011;35135;47.510;19.036;2023-03-29T08:32:34;2.72;;;1.35;;
35324;SDS011;35135;47.510;19.036;2023-03-29T08:35:01;2.85;;;1.65;;
35324;SDS011;35135;47.510;19.036;2023-03-29T08:37:29;2.92;;;1.70;;
35324;SDS011;35135;47.510;19.036;2023-03-29T08:39:55;2.05;;;1.55;;
35324;SDS011;35135;47.510;19.036;2023-03-29T08:50:32;3.33;;;1.67;;
35324;SDS011;35135;47.510;19.036;2023-03-29T08:53:12;1.98;;;1.35;;
35324;SDS011;35135;47.510;19.036;2023-03-29T08:55:45;2.10;;;1.40;;
35324;SDS011;35135;47.510;19.036;2023-03-29T08:58:19;2.78;;;1.40;;
35324;SDS011;35135;47.510;19.036;2023-03-29T09:00:53;2.75;;;1.58;;
35324;SDS011;35135;47.510;19.036;2023-03-29T09:03:29;1.65;;;1.10;;
35324;SDS011;35135;47.510;19.036;2023-03-29T09:06:06;2.45;;;1.35;;
35324;SDS011;35135;47.510;19.036;2023-03-29T09:08:43;2.97;;;1.50;;
35324;SDS011;35135;47.510;19.036;2023-03-29T09:16:50;3.85;;;1.65;;
35324;SDS011;35135;47.510;19.036;2023-03-29T09:20:13;2.00;;;1.60;;
35324;SDS011;35135;47.510;19.036;2023-03-29T09:23:02;1.40;;;1.02;;
35324;SDS011;35135;47.510;19.036;2023-03-29T09:31:34;1.55;;;1.23;;
35324;SDS011;35135;47.510;19.036;2023-03-29T09:34:13;1.75;;;1.23;;
35324;SDS011;35135;47.510;19.036;2023-03-29T09:36:52;1.42;;;1.10;;
35324;SDS011;35135;47.510;19.036;2023-03-29T09:39:20;1.73;;;1.23;;
35324;SDS011;35135;47.510;19.036;2023-03-29T09:41:55;2.75;;;1.50;;
35324;SDS011;35135;47.510;19.036;2023-03-29T09:44:30;2.25;;;1.42;;
35324;SDS011;35135;47.510;19.036;2023-03-29T09:47:22;3.13;;;1.40;;
35324;SDS011;35135;47.510;19.036;2023-03-29T09:50:12;1.85;;;1.27;;
35324;SDS011;35135;47.510;19.036;2023-03-29T09:52:44;1.95;;;1.27;;
35324;SDS011;35135;47.510;19.036;2023-03-29T09:55:13;2.22;;;1.10;;
35324;SDS011;35135;47.510;19.036;2023-03-29T09:57:40;2.28;;;1.33;;
35324;SDS011;35135;47.510;19.036;2023-03-29T10:00:08;2.25;;;1.27;;
35324;SDS011;35135;47.510;19.036;2023-03-29T10:02:35;2.75;;;1.30;;
35324;SDS011;35135;47.510;19.036;2023-03-29T10:05:02;2.65;;;1.35;;
35324;SDS011;35135;47.510;19.036;2023-03-29T10:07:49;1.42;;;0.90;;
35324;SDS011;35135;47.510;19.036;2023-03-29T10:10:19;1.48;;;1.10;;
35324;SDS011;35135;47.510;19.036;2023-03-29T10:12:48;3.13;;;1.25;;
35324;SDS011;35135;47.510;19.036;2023-03-29T10:15:16;2.00;;;1.30;;
35324;SDS011;35135;47.510;19.036;2023-03-29T10:17:43;1.70;;;1.10;;
35324;SDS011;35135;47.510;19.036;2023-03-29T10:20:14;3.03;;;1.40;;
35324;SDS011;35135;47.510;19.036;2023-03-29T10:25:19;1.50;;;1.08;;
35324;SDS011;35135;47.510;19.036;2023-03-29T10:27:56;2.67;;;1.27;;
35324;SDS011;35135;47.510;19.036;2023-03-29T10:30:40;2.60;;;1.20;;
35324;SDS011;35135;47.510;19.036;2023-03-29T10:33:14;1.63;;;1.20;;
35324;SDS011;35135;47.510;19.036;2023-03-29T10:35:43;2.08;;;1.30;;
35324;SDS011;35135;47.510;19.036;2023-03-29T10:38:12;2.03;;;1.20;;
35324;SDS011;35135;47.510;19.036;2023-03-29T10:40:42;1.50;;;1.25;;
35324;SDS011;35135;47.510;19.036;2023-03-29T10:43:56;2.50;;;1.35;;
35324;SDS011;35135;47.510;19.036;2023-03-29T10:46:08;1.50;;;0.93;;
35324;SDS011;35135;47.510;19.036;2023-03-29T10:48:44;1.30;;;1.00;;
35324;SDS011;35135;47.510;19.036;2023-03-29T10:51:13;1.57;;;1.23;;
35324;SDS011;35135;47.510;19.036;2023-03-29T10:53:40;2.17;;;1.33;;
35324;SDS011;35135;47.510;19.036;2023-03-29T11:06:59;1.80;;;1.00;;
35324;SDS011;35135;47.510;19.036;2023-03-29T11:12:56;2.20;;;1.30;;
35324;SDS011;35135;47.510;19.036;2023-03-29T11:20:55;2.45;;;1.30;;
35324;SDS011;35135;47.510;19.036;2023-03-29T11:23:37;2.03;;;1.08;;
35324;SDS011;35135;47.510;19.036;2023-03-29T11:26:12;1.88;;;1.20;;
35324;SDS011;35135;47.510;19.036;2023-03-29T11:29:25;1.95;;;1.00;;
35324;SDS011;35135;47.510;19.036;2023-03-29T11:37:43;1.77;;;1.00;;
35324;SDS011;35135;47.510;19.036;2023-03-29T11:40:21;1.38;;;1.00;;
35324;SDS011;35135;47.510;19.036;2023-03-29T11:48:48;1.70;;;1.20;;
35324;SDS011;35135;47.510;19.036;2023-03-29T11:51:29;1.80;;;1.20;;
35324;SDS011;35135;47.510;19.036;2023-03-29T12:02:40;3.28;;;1.20;;
35324;SDS011;35135;47.510;19.036;2023-03-29T12:11:25;2.15;;;0.98;;
35324;SDS011;35135;47.510;19.036;2023-03-29T12:13:35;2.33;;;1.30;;
35324;SDS011;35135;47.510;19.036;2023-03-29T12:16:10;2.15;;;1.10;;
35324;SDS011;35135;47.510;19.036;2023-03-29T12:18:47;1.23;;;1.00;;
35324;SDS011;35135;47.510;19.036;2023-03-29T12:21:20;2.70;;;1.10;;
35324;SDS011;35135;47.510;19.036;2023-03-29T12:23:47;1.85;;;1.13;;
35324;SDS011;35135;47.510;19.036;2023-03-29T12:26:30;3.70;;;1.20;;
35324;SDS011;35135;47.510;19.036;2023-03-29T12:40:20;1.55;;;0.90;;
35324;SDS011;35135;47.510;19.036;2023-03-29T12:42:53;2.75;;;0.85;;
35324;SDS011;35135;47.510;19.036;2023-03-29T12:45:33;3.42;;;1.10;;
35324;SDS011;35135;47.510;19.036;2023-03-29T12:48:03;2.28;;;1.08;;
35324;SDS011;35135;47.510;19.036;2023-03-29T12:55:48;2.22;;;1.10;;
35324;SDS011;35135;47.510;19.036;2023-03-29T12:58:26;3.20;;;1.17;;
35324;SDS011;35135;47.510;19.036;2023-03-29T13:03:50;2.20;;;0.82;;
35324;SDS011;35135;47.510;19.036;2023-03-29T13:06:29;1.95;;;1.35;;
35324;SDS011;35135;47.510;19.036;2023-03-29T13:11:55;3.13;;;1.05;;
35324;SDS011;35135;47.510;19.036;2023-03-29T13:14:27;2.47;;;0.85;;
35324;SDS011;35135;47.510;19.036;2023-03-29T13:17:05;4.68;;;1.40;;
35324;SDS011;35135;47.510;19.036;2023-03-29T13:19:45;2.22;;;1.02;;
35324;SDS011;35135;47.510;19.036;2023-03-29T13:22:23;4.03;;;1.10;;
35324;SDS011;35135;47.510;19.036;2023-03-29T13:25:35;3.60;;;0.98;;
35324;SDS011;35135;47.510;19.036;2023-03-29T13:30:57;2.70;;;0.95;;
35324;SDS011;35135;47.510;19.036;2023-03-29T13:36:39;3.50;;;1.15;;
35324;SDS011;35135;47.510;19.036;2023-03-29T13:39:22;2.67;;;0.90;;
35324;SDS011;35135;47.510;19.036;2023-03-29T13:42:04;3.88;;;1.20;;
35324;SDS011;35135;47.510;19.036;2023-03-29T13:44:47;8.88;;;1.65;;
35324;SDS011;35135;47.510;19.036;2023-03-29T13:53:14;1.83;;;1.00;;
35324;SDS011;35135;47.510;19.036;2023-03-29T13:55:57;2.75;;;1.05;;
35324;SDS011;35135;47.510;19.036;2023-03-29T13:58:37;2.55;;;1.27;;
35324;SDS011;35135;47.510;19.036;2023-03-29T14:03:55;2.92;;;1.38;;
35324;SDS011;35135;47.510;19.036;2023-03-29T14:06:31;5.15;;;1.70;;
35324;SDS011;35135;47.510;19.036;2023-03-29T14:09:02;4.15;;;1.58;;
35324;SDS011;35135;47.510;19.036;2023-03-29T14:11:31;2.90;;;1.20;;
35324;SDS011;35135;47.510;19.036;2023-03-29T14:13:58;9.88;;;1.20;;
35324;SDS011;35135;47.510;19.036;2023-03-29T14:16:25;2.15;;;1.17;;
35324;SDS011;35135;47.510;19.036;2023-03-29T14:19:18;5.27;;;1.30;;
35324;SDS011;35135;47.510;19.036;2023-03-29T14:21:45;3.60;;;1.30;;
35324;SDS011;35135;47.510;19.036;2023-03-29T14:24:21;5.70;;;1.00;;
35324;SDS011;35135;47.510;19.036;2023-03-29T14:26:51;3.78;;;1.58;;
35324;SDS011;35135;47.510;19.036;2023-03-29T14:29:18;4.68;;;1.17;;
35324;SDS011;35135;47.510;19.036;2023-03-29T14:31:44;3.10;;;1.38;;
35324;SDS011;35135;47.510;19.036;2023-03-29T14:34:14;2.50;;;1.02;;
35324;SDS011;35135;47.510;19.036;2023-03-29T14:36:45;4.53;;;1.42;;
35324;SDS011;35135;47.510;19.036;2023-03-29T14:41:52;2.90;;;1.65;;
35324;SDS011;35135;47.510;19.036;2023-03-29T14:44:21;5.13;;;1.40;;
35324;SDS011;35135;47.510;19.036;2023-03-29T14:46:51;4.05;;;1.50;;
35324;SDS011;35135;47.510;19.036;2023-03-29T14:49:18;3.90;;;1.00;;
35324;SDS011;35135;47.510;19.036;2023-03-29T14:51:46;3.72;;;1.40;;
35324;SDS011;35135;47.510;19.036;2023-03-29T14:54:26;3.65;;;1.40;;
35324;SDS011;35135;47.510;19.036;2023-03-29T14:56:54;2.95;;;1.25;;
35324;SDS011;35135;47.510;19.036;2023-03-29T14:59:22;2.83;;;1.20;;
35324;SDS011;35135;47.510;19.036;2023-03-29T15:01:51;3.13;;;1.80;;
35324;SDS011;35135;47.510;19.036;2023-03-29T15:04:17;2.92;;;1.15;;
35324;SDS011;35135;47.510;19.036;2023-03-29T15:06:43;4.97;;;1.67;;
35324;SDS011;35135;47.510;19.036;2023-03-29T15:09:23;2.70;;;1.05;;
35324;SDS011;35135;47.510;19.036;2023-03-29T15:11:53;5.57;;;1.50;;
35324;SDS011;35135;47.510;19.036;2023-03-29T15:14:20;2.78;;;1.40;;
35324;SDS011;35135;47.510;19.036;2023-03-29T15:16:49;2.42;;;1.33;;
35324;SDS011;35135;47.510;19.036;2023-03-29T15:19:18;3.75;;;1.20;;
35324;SDS011;35135;47.510;19.036;2023-03-29T15:21:46;2.53;;;1.00;;
35324;SDS011;35135;47.510;19.036;2023-03-29T15:24:26;2.55;;;1.27;;
35324;SDS011;35135;47.510;19.036;2023-03-29T15:27:16;4.35;;;1.13;;
35324;SDS011;35135;47.510;19.036;2023-03-29T15:29:46;2.50;;;1.20;;
35324;SDS011;35135;47.510;19.036;2023-03-29T15:32:19;2.90;;;1.20;;
35324;SDS011;35135;47.510;19.036;2023-03-29T15:34:56;4.00;;;1.48;;
35324;SDS011;35135;47.510;19.036;2023-03-29T15:37:23;2.55;;;1.30;;
35324;SDS011;35135;47.510;19.036;2023-03-29T15:39:49;5.60;;;1.40;;
35324;SDS011;35135;47.510;19.036;2023-03-29T15:42:15;1.48;;;1.00;;
35324;SDS011;35135;47.510;19.036;2023-03-29T15:44:41;6.80;;;1.92;;
35324;SDS011;35135;47.510;19.036;2023-03-29T15:47:11;4.10;;;1.40;;
35324;SDS011;35135;47.510;19.036;2023-03-29T15:49:37;3.58;;;1.30;;
35324;SDS011;35135;47.510;19.036;2023-03-29T15:52:03;6.10;;;1.20;;
35324;SDS011;35135;47.510;19.036;2023-03-29T15:54:29;4.07;;;1.20;;
35324;SDS011;35135;47.510;19.036;2023-03-29T15:56:58;2.65;;;1.13;;
35324;SDS011;35135;47.510;19.036;2023-03-29T15:59:27;5.13;;;1.20;;
35324;SDS011;35135;47.510;19.036;2023-03-29T16:01:54;2.60;;;1.15;;
35324;SDS011;35135;47.510;19.036;2023-03-29T16:04:22;2.10;;;1.05;;
35324;SDS011;35135;47.510;19.036;2023-03-29T16:06:49;3.92;;;1.10;;
35324;SDS011;35135;47.510;19.036;2023-03-29T16:09:17;2.60;;;1.05;;
35324;SDS011;35135;47.510;19.036;2023-03-29T16:11:44;2.67;;;1.20;;
35324;SDS011;35135;47.510;19.036;2023-03-29T16:14:15;4.15;;;1.60;;
35324;SDS011;35135;47.510;19.036;2023-03-29T16:16:46;2.42;;;1.15;;
35324;SDS011;35135;47.510;19.036;2023-03-29T16:19:12;4.15;;;1.50;;
35324;SDS011;35135;47.510;19.036;2023-03-29T16:21:38;3.88;;;1.42;;
35324;SDS011;35135;47.510;19.036;2023-03-29T16:24:04;3.40;;;1.60;;
35324;SDS011;35135;47.510;19.036;2023-03-29T16:26:31;3.85;;;1.20;;
35324;SDS011;35135;47.510;19.036;2023-03-29T16:28:57;2.20;;;1.30;;
35324;SDS011;35135;47.510;19.036;2023-03-29T16:31:22;4.88;;;1.48;;
35324;SDS011;35135;47.510;19.036;2023-03-29T16:33:50;4.43;;;1.40;;
35324;SDS011;35135;47.510;19.036;2023-03-29T16:36:16;2.80;;;1.38;;
35324;SDS011;35135;47.510;19.036;2023-03-29T16:38:42;2.75;;;1.33;;
35324;SDS011;35135;47.510;19.036;2023-03-29T16:41:10;3.25;;;1.30;;
35324;SDS011;35135;47.510;19.036;2023-03-29T16:43:39;2.97;;;1.30;;
35324;SDS011;35135;47.510;19.036;2023-03-29T16:46:05;4.68;;;1.50;;
35324;SDS011;35135;47.510;19.036;2023-03-29T16:48:33;2.80;;;1.10;;
35324;SDS011;35135;47.510;19.036;2023-03-29T16:50:58;2.88;;;1.23;;
35324;SDS011;35135;47.510;19.036;2023-03-29T16:53:24;3.38;;;1.35;;